Streamwood, IL (60107)

2:51 PM CDT on August 29, 2015 (GMT -0500)
Streamwood East | | Change Station
CLOSE
Current Station
Personal Weather Station
Location: Streamwood, IL
Elevation: 810 ft
Nearby Weather Stations

Elev 810 ft 42.01 °N, 88.17 °W | Updated 7 minutes ago

Overcast
Overcast
71.4 °F
Feels Like 71 °F
N
0.0
Wind Variable Wind from NW

Today
High -- | Low -- °F
--% Chance of Precip.
Yesterday
High -- | Low -- °F
Precip. -- in
6:14 AM 7:31 PM
Full, 100% visible
Pressure 30.00 in
Visibility 6.0 miles
Clouds Scattered Clouds 2200 ft
Mostly Cloudy 4000 ft
Overcast 7000 ft
Heat Index 71 °F
Dew Point 66 °F
Humidity 83%
Rainfall 0.60 in
Snow Depth Not available.
UV 3 out of 12
Pollen 1.10 out of 12
Air Quality Not available.
Flu Activity Not available.
METAR KDPA 291852Z 18007KT 6SM BR SCT022 BKN040 OVC070 21/18 A3001 RMK AO2 RAE21 SLP158 P0000 T02060183
Pressure 30.00 in
Visibility 6.0 miles
Clouds Scattered Clouds 2200 ft
Mostly Cloudy 4000 ft
Overcast 7000 ft
Heat Index 71 °F
Dew Point 66 °F
Humidity 83%
Rainfall 0.60 in
Snow Depth Not available.
UV 3 out of 12
Pollen 1.10 out of 12
Air Quality Not available.
Flu Activity Not available.
METAR KDPA 291852Z 18007KT 6SM BR SCT022 BKN040 OVC070 21/18 A3001 RMK AO2 RAE21 SLP158 P0000 T02060183

10-Day Weather Forecast

×

Almanac

Astronomy

Aug. 29, 2015 Rise Set
Actual Time
Civil Twilight
Nautical Twilight
Astronomical Twilight
Moon
Length of Visible Light
Length of Day
Tomorrow will be .
, % of the Moon is Illuminated

Today's Extremes

State Highs State Lows

Community

WunderPhotos

Upload Photos

1,850,786 photos uploaded!

WunderBlogs® & News

Nearby

Air Quality

  Air Quality AQ Index Pollutant
Not available.

Snow Depth

Station Depth Elevation

Earthquake Activity

City Distance Mag. Time & Date
Minimum magnitude displayed is 2.5.

Coastal Water Temperatures

Place Temperature

Stations

Nearby Weather Stations

Station Location Temp. Windchill Dew Point Humidity Wind Precip. Elev Updated Type